sensor_id;sensor_type;location;lat;lon;timestamp;temperature;humidity
74294;DHT22;64044;59.904;10.738;2023-01-19T00:01:56;4.90;77.90
74294;DHT22;64044;59.904;10.738;2023-01-19T00:04:21;4.90;77.90
74294;DHT22;64044;59.904;10.738;2023-01-19T00:06:47;4.80;77.80
74294;DHT22;64044;59.904;10.738;2023-01-19T00:09:13;4.80;77.90
74294;DHT22;64044;59.904;10.738;2023-01-19T00:11:39;4.80;78.00
74294;DHT22;64044;59.904;10.738;2023-01-19T00:14:04;4.80;78.00
74294;DHT22;64044;59.904;10.738;2023-01-19T00:16:30;4.70;78.00
74294;DHT22;64044;59.904;10.738;2023-01-19T00:18:56;4.70;78.00
74294;DHT22;64044;59.904;10.738;2023-01-19T00:21:22;4.70;78.00
74294;DHT22;64044;59.904;10.738;2023-01-19T00:23:47;4.70;77.90
74294;DHT22;64044;59.904;10.738;2023-01-19T00:26:16;4.60;77.80
74294;DHT22;64044;59.904;10.738;2023-01-19T00:28:42;4.60;77.70
74294;DHT22;64044;59.904;10.738;2023-01-19T00:31:08;4.60;77.70
74294;DHT22;64044;59.904;10.738;2023-01-19T00:33:34;4.60;77.50
74294;DHT22;64044;59.904;10.738;2023-01-19T00:36:00;4.60;77.50
74294;DHT22;64044;59.904;10.738;2023-01-19T00:38:26;4.50;77.40
74294;DHT22;64044;59.904;10.738;2023-01-19T00:40:51;4.50;77.50
74294;DHT22;64044;59.904;10.738;2023-01-19T00:43:17;4.50;77.50
74294;DHT22;64044;59.904;10.738;2023-01-19T00:45:44;4.50;77.50
74294;DHT22;64044;59.904;10.738;2023-01-19T00:48:10;4.50;77.50
74294;DHT22;64044;59.904;10.738;2023-01-19T00:50:36;4.50;77.60
74294;DHT22;64044;59.904;10.738;2023-01-19T00:53:01;4.60;77.60
74294;DHT22;64044;59.904;10.738;2023-01-19T00:55:28;4.50;77.50
74294;DHT22;64044;59.904;10.738;2023-01-19T00:57:55;4.60;77.50
74294;DHT22;64044;59.904;10.738;2023-01-19T01:00:21;4.60;77.40
74294;DHT22;64044;59.904;10.738;2023-01-19T01:02:49;4.60;77.40
74294;DHT22;64044;59.904;10.738;2023-01-19T01:05:15;4.60;77.40
74294;DHT22;64044;59.904;10.738;2023-01-19T01:07:41;4.60;77.40
74294;DHT22;64044;59.904;10.738;2023-01-19T01:10:11;4.60;77.40
74294;DHT22;64044;59.904;10.738;2023-01-19T01:12:37;4.60;77.40
74294;DHT22;64044;59.904;10.738;2023-01-19T01:15:07;4.70;77.40
74294;DHT22;64044;59.904;10.738;2023-01-19T01:17:34;4.70;77.30
74294;DHT22;64044;59.904;10.738;2023-01-19T01:19:59;4.70;77.30
74294;DHT22;64044;59.904;10.738;2023-01-19T01:22:25;4.70;77.20
74294;DHT22;64044;59.904;10.738;2023-01-19T01:24:51;4.80;77.20
74294;DHT22;64044;59.904;10.738;2023-01-19T01:27:17;4.80;77.20
74294;DHT22;64044;59.904;10.738;2023-01-19T01:29:42;4.80;77.10
74294;DHT22;64044;59.904;10.738;2023-01-19T01:32:12;4.80;77.10
74294;DHT22;64044;59.904;10.738;2023-01-19T01:34:38;4.80;77.00
74294;DHT22;64044;59.904;10.738;2023-01-19T01:37:04;4.90;76.90
74294;DHT22;64044;59.904;10.738;2023-01-19T01:39:33;4.90;76.90
74294;DHT22;64044;59.904;10.738;2023-01-19T01:41:59;4.90;76.90
74294;DHT22;64044;59.904;10.738;2023-01-19T01:47:22;4.90;76.70
74294;DHT22;64044;59.904;10.738;2023-01-19T01:49:51;4.90;76.70
74294;DHT22;64044;59.904;10.738;2023-01-19T01:52:18;4.90;76.60
74294;DHT22;64044;59.904;10.738;2023-01-19T01:54:44;4.90;76.60
74294;DHT22;64044;59.904;10.738;2023-01-19T01:57:11;4.90;76.60
74294;DHT22;64044;59.904;10.738;2023-01-19T01:59:42;4.90;76.60
74294;DHT22;64044;59.904;10.738;2023-01-19T02:02:22;4.80;76.50
74294;DHT22;64044;59.904;10.738;2023-01-19T02:05:16;4.90;76.60
74294;DHT22;64044;59.904;10.738;2023-01-19T02:08:03;4.80;76.50
74294;DHT22;64044;59.904;10.738;2023-01-19T02:10:50;4.80;76.50
74294;DHT22;64044;59.904;10.738;2023-01-19T02:13:37;4.90;76.60
74294;DHT22;64044;59.904;10.738;2023-01-19T02:16:06;4.90;76.60
74294;DHT22;64044;59.904;10.738;2023-01-19T02:18:33;4.90;76.60
74294;DHT22;64044;59.904;10.738;2023-01-19T02:21:11;4.90;76.70
74294;DHT22;64044;59.904;10.738;2023-01-19T02:23:51;4.90;76.60
74294;DHT22;64044;59.904;10.738;2023-01-19T02:26:23;4.90;76.60
74294;DHT22;64044;59.904;10.738;2023-01-19T02:29:02;4.90;76.60
74294;DHT22;64044;59.904;10.738;2023-01-19T02:31:30;4.90;76.60
74294;DHT22;64044;59.904;10.738;2023-01-19T02:33:57;5.00;76.60
74294;DHT22;64044;59.904;10.738;2023-01-19T02:36:29;5.00;76.60
74294;DHT22;64044;59.904;10.738;2023-01-19T02:38:58;5.00;76.50
74294;DHT22;64044;59.904;10.738;2023-01-19T02:41:29;5.00;76.50
74294;DHT22;64044;59.904;10.738;2023-01-19T02:43:57;5.00;76.30
74294;DHT22;64044;59.904;10.738;2023-01-19T02:46:24;5.00;76.30
74294;DHT22;64044;59.904;10.738;2023-01-19T02:48:50;5.10;76.40
74294;DHT22;64044;59.904;10.738;2023-01-19T02:51:28;5.00;76.20
74294;DHT22;64044;59.904;10.738;2023-01-19T02:56:51;5.10;76.20
74294;DHT22;64044;59.904;10.738;2023-01-19T03:18:33;5.00;76.50
74294;DHT22;64044;59.904;10.738;2023-01-19T03:21:04;5.00;76.50
74294;DHT22;64044;59.904;10.738;2023-01-19T03:23:31;4.90;76.40
74294;DHT22;64044;59.904;10.738;2023-01-19T03:25:59;5.00;76.40
74294;DHT22;64044;59.904;10.738;2023-01-19T03:28:28;4.90;76.40
74294;DHT22;64044;59.904;10.738;2023-01-19T03:31:21;4.90;76.50
74294;DHT22;64044;59.904;10.738;2023-01-19T03:34:01;4.90;76.50
74294;DHT22;64044;59.904;10.738;2023-01-19T03:36:43;4.90;76.50
74294;DHT22;64044;59.904;10.738;2023-01-19T03:39:13;4.90;76.40
74294;DHT22;64044;59.904;10.738;2023-01-19T03:41:41;4.90;76.30
74294;DHT22;64044;59.904;10.738;2023-01-19T03:44:10;4.90;76.30
74294;DHT22;64044;59.904;10.738;2023-01-19T03:46:37;4.90;76.30
74294;DHT22;64044;59.904;10.738;2023-01-19T03:49:03;4.80;76.30
74294;DHT22;64044;59.904;10.738;2023-01-19T03:51:29;4.80;76.40
74294;DHT22;64044;59.904;10.738;2023-01-19T03:53:55;4.80;76.50
74294;DHT22;64044;59.904;10.738;2023-01-19T03:56:23;4.80;76.60
74294;DHT22;64044;59.904;10.738;2023-01-19T03:58:49;4.80;76.60
74294;DHT22;64044;59.904;10.738;2023-01-19T04:01:16;4.80;76.60
74294;DHT22;64044;59.904;10.738;2023-01-19T04:03:42;4.80;76.60
74294;DHT22;64044;59.904;10.738;2023-01-19T04:06:09;4.80;76.70
74294;DHT22;64044;59.904;10.738;2023-01-19T04:09:00;4.80;76.70
74294;DHT22;64044;59.904;10.738;2023-01-19T04:11:25;4.80;76.80
74294;DHT22;64044;59.904;10.738;2023-01-19T04:13:51;4.70;76.50
74294;DHT22;64044;59.904;10.738;2023-01-19T04:16:17;4.70;76.60
74294;DHT22;64044;59.904;10.738;2023-01-19T04:18:45;4.70;76.60
74294;DHT22;64044;59.904;10.738;2023-01-19T04:21:11;4.70;76.70
74294;DHT22;64044;59.904;10.738;2023-01-19T04:23:36;4.70;76.80
74294;DHT22;64044;59.904;10.738;2023-01-19T04:26:04;4.70;76.80
74294;DHT22;64044;59.904;10.738;2023-01-19T04:28:31;4.70;77.00
74294;DHT22;64044;59.904;10.738;2023-01-19T04:30:59;4.70;77.00
74294;DHT22;64044;59.904;10.738;2023-01-19T04:33:26;4.70;77.00
74294;DHT22;64044;59.904;10.738;2023-01-19T04:35:52;4.70;77.00
74294;DHT22;64044;59.904;10.738;2023-01-19T04:38:18;4.70;77.00
74294;DHT22;64044;59.904;10.738;2023-01-19T04:40:45;4.60;77.00
74294;DHT22;64044;59.904;10.738;2023-01-19T04:43:11;4.60;77.00
74294;DHT22;64044;59.904;10.738;2023-01-19T04:45:37;4.60;77.10
74294;DHT22;64044;59.904;10.738;2023-01-19T04:48:03;4.60;77.20
74294;DHT22;64044;59.904;10.738;2023-01-19T04:50:30;4.60;77.30
74294;DHT22;64044;59.904;10.738;2023-01-19T04:52:57;4.70;77.40
74294;DHT22;64044;59.904;10.738;2023-01-19T04:55:22;4.60;77.30
74294;DHT22;64044;59.904;10.738;2023-01-19T04:57:48;4.60;77.30
74294;DHT22;64044;59.904;10.738;2023-01-19T05:00:14;4.60;77.30
74294;DHT22;64044;59.904;10.738;2023-01-19T05:02:40;4.60;77.30
74294;DHT22;64044;59.904;10.738;2023-01-19T05:05:10;4.60;77.30
74294;DHT22;64044;59.904;10.738;2023-01-19T05:07:36;4.60;77.30
74294;DHT22;64044;59.904;10.738;2023-01-19T05:10:02;4.60;77.20
74294;DHT22;64044;59.904;10.738;2023-01-19T05:12:28;4.60;77.30
74294;DHT22;64044;59.904;10.738;2023-01-19T05:14:54;4.60;77.30
74294;DHT22;64044;59.904;10.738;2023-01-19T05:17:19;4.60;77.40
74294;DHT22;64044;59.904;10.738;2023-01-19T05:19:45;4.60;77.40
74294;DHT22;64044;59.904;10.738;2023-01-19T05:22:12;4.50;77.50
74294;DHT22;64044;59.904;10.738;2023-01-19T05:24:38;4.60;77.70
74294;DHT22;64044;59.904;10.738;2023-01-19T05:27:04;4.50;77.70
74294;DHT22;64044;59.904;10.738;2023-01-19T05:29:30;4.50;77.70
74294;DHT22;64044;59.904;10.738;2023-01-19T05:31:55;4.50;77.70
74294;DHT22;64044;59.904;10.738;2023-01-19T05:34:22;4.50;77.70
74294;DHT22;64044;59.904;10.738;2023-01-19T05:36:48;4.50;77.80
74294;DHT22;64044;59.904;10.738;2023-01-19T05:39:14;4.50;78.00
74294;DHT22;64044;59.904;10.738;2023-01-19T05:41:40;4.50;78.20
74294;DHT22;64044;59.904;10.738;2023-01-19T05:44:07;4.40;78.20
74294;DHT22;64044;59.904;10.738;2023-01-19T05:46:33;4.40;78.30
74294;DHT22;64044;59.904;10.738;2023-01-19T05:48:59;4.40;78.40
74294;DHT22;64044;59.904;10.738;2023-01-19T05:51:29;4.40;78.60
74294;DHT22;64044;59.904;10.738;2023-01-19T05:54:00;4.40;78.60
74294;DHT22;64044;59.904;10.738;2023-01-19T05:56:26;4.40;78.60
74294;DHT22;64044;59.904;10.738;2023-01-19T05:58:51;4.40;78.60
74294;DHT22;64044;59.904;10.738;2023-01-19T06:01:17;4.40;78.90
74294;DHT22;64044;59.904;10.738;2023-01-19T06:03:43;4.40;78.90
74294;DHT22;64044;59.904;10.738;2023-01-19T06:06:08;4.40;78.90
74294;DHT22;64044;59.904;10.738;2023-01-19T06:11:00;4.40;78.90
74294;DHT22;64044;59.904;10.738;2023-01-19T06:13:25;4.40;78.80
74294;DHT22;64044;59.904;10.738;2023-01-19T06:16:04;4.40;78.80
74294;DHT22;64044;59.904;10.738;2023-01-19T06:18:30;4.40;79.10
74294;DHT22;64044;59.904;10.738;2023-01-19T06:20:56;4.40;78.90
74294;DHT22;64044;59.904;10.738;2023-01-19T06:23:28;4.40;78.90
74294;DHT22;64044;59.904;10.738;2023-01-19T06:25:55;4.40;79.00
74294;DHT22;64044;59.904;10.738;2023-01-19T06:28:21;4.40;79.00
74294;DHT22;64044;59.904;10.738;2023-01-19T06:30:54;4.40;78.90
74294;DHT22;64044;59.904;10.738;2023-01-19T06:33:21;4.30;78.80
74294;DHT22;64044;59.904;10.738;2023-01-19T06:35:48;4.30;78.80
74294;DHT22;64044;59.904;10.738;2023-01-19T06:38:15;4.30;78.80
74294;DHT22;64044;59.904;10.738;2023-01-19T06:40:43;4.30;78.80
74294;DHT22;64044;59.904;10.738;2023-01-19T06:43:10;4.30;78.70
74294;DHT22;64044;59.904;10.738;2023-01-19T06:45:36;4.30;78.80
74294;DHT22;64044;59.904;10.738;2023-01-19T06:48:04;4.30;78.70
74294;DHT22;64044;59.904;10.738;2023-01-19T06:50:30;4.20;78.20
74294;DHT22;64044;59.904;10.738;2023-01-19T06:52:56;4.20;78.00
74294;DHT22;64044;59.904;10.738;2023-01-19T06:55:21;4.20;77.90
74294;DHT22;64044;59.904;10.738;2023-01-19T06:57:47;4.10;77.80
74294;DHT22;64044;59.904;10.738;2023-01-19T07:00:13;4.10;77.60
74294;DHT22;64044;59.904;10.738;2023-01-19T07:02:42;4.00;77.60
74294;DHT22;64044;59.904;10.738;2023-01-19T07:05:09;3.90;77.60
74294;DHT22;64044;59.904;10.738;2023-01-19T07:07:35;3.90;77.70
74294;DHT22;64044;59.904;10.738;2023-01-19T07:10:05;3.80;77.90
74294;DHT22;64044;59.904;10.738;2023-01-19T07:12:32;3.80;77.90
74294;DHT22;64044;59.904;10.738;2023-01-19T07:14:58;3.70;77.90
74294;DHT22;64044;59.904;10.738;2023-01-19T07:17:24;3.70;78.00
74294;DHT22;64044;59.904;10.738;2023-01-19T07:19:49;3.70;78.20
74294;DHT22;64044;59.904;10.738;2023-01-19T07:22:15;3.60;78.20
74294;DHT22;64044;59.904;10.738;2023-01-19T07:24:41;3.60;78.20
74294;DHT22;64044;59.904;10.738;2023-01-19T07:27:07;3.60;78.40
74294;DHT22;64044;59.904;10.738;2023-01-19T07:29:33;3.60;78.50
74294;DHT22;64044;59.904;10.738;2023-01-19T07:31:59;3.60;78.70
74294;DHT22;64044;59.904;10.738;2023-01-19T07:34:24;3.60;78.70
74294;DHT22;64044;59.904;10.738;2023-01-19T07:36:50;3.60;78.60
74294;DHT22;64044;59.904;10.738;2023-01-19T07:39:16;3.60;78.60
74294;DHT22;64044;59.904;10.738;2023-01-19T07:41:41;3.60;78.50
74294;DHT22;64044;59.904;10.738;2023-01-19T07:44:07;3.60;78.50
74294;DHT22;64044;59.904;10.738;2023-01-19T07:46:35;3.60;78.40
74294;DHT22;64044;59.904;10.738;2023-01-19T07:49:01;3.60;78.40
74294;DHT22;64044;59.904;10.738;2023-01-19T07:51:27;3.70;78.50
74294;DHT22;64044;59.904;10.738;2023-01-19T07:53:52;3.70;78.50
74294;DHT22;64044;59.904;10.738;2023-01-19T07:56:18;3.70;78.40
74294;DHT22;64044;59.904;10.738;2023-01-19T07:58:44;3.70;78.30
74294;DHT22;64044;59.904;10.738;2023-01-19T08:01:11;3.70;78.20
74294;DHT22;64044;59.904;10.738;2023-01-19T08:03:38;3.70;78.10
74294;DHT22;64044;59.904;10.738;2023-01-19T08:06:04;3.70;78.00
74294;DHT22;64044;59.904;10.738;2023-01-19T08:08:32;3.80;78.00
74294;DHT22;64044;59.904;10.738;2023-01-19T08:10:58;3.80;78.00
74294;DHT22;64044;59.904;10.738;2023-01-19T08:13:25;3.80;78.00
74294;DHT22;64044;59.904;10.738;2023-01-19T08:15:51;3.80;77.90
74294;DHT22;64044;59.904;10.738;2023-01-19T08:18:18;3.80;77.90
74294;DHT22;64044;59.904;10.738;2023-01-19T08:20:44;3.70;77.70
74294;DHT22;64044;59.904;10.738;2023-01-19T08:23:10;3.70;77.70
74294;DHT22;64044;59.904;10.738;2023-01-19T08:25:41;3.70;77.60
74294;DHT22;64044;59.904;10.738;2023-01-19T08:28:09;3.70;77.30
74294;DHT22;64044;59.904;10.738;2023-01-19T08:30:35;3.70;77.20
74294;DHT22;64044;59.904;10.738;2023-01-19T08:33:01;3.60;77.10
74294;DHT22;64044;59.904;10.738;2023-01-19T08:35:42;3.60;77.00
74294;DHT22;64044;59.904;10.738;2023-01-19T08:38:11;3.60;77.00
74294;DHT22;64044;59.904;10.738;2023-01-19T08:40:39;3.60;77.10
74294;DHT22;64044;59.904;10.738;2023-01-19T08:43:15;3.50;77.00
74294;DHT22;64044;59.904;10.738;2023-01-19T08:45:48;3.50;77.00
74294;DHT22;64044;59.904;10.738;2023-01-19T08:48:40;3.50;77.10
74294;DHT22;64044;59.904;10.738;2023-01-19T08:51:06;3.40;77.80
74294;DHT22;64044;59.904;10.738;2023-01-19T08:53:31;3.40;77.00
74294;DHT22;64044;59.904;10.738;2023-01-19T08:55:57;3.40;77.00
74294;DHT22;64044;59.904;10.738;2023-01-19T08:58:27;3.40;76.90
74294;DHT22;64044;59.904;10.738;2023-01-19T09:00:53;3.40;76.90
74294;DHT22;64044;59.904;10.738;2023-01-19T09:03:19;3.30;76.80
74294;DHT22;64044;59.904;10.738;2023-01-19T09:05:47;3.30;76.80
74294;DHT22;64044;59.904;10.738;2023-01-19T09:08:14;3.30;76.90
74294;DHT22;64044;59.904;10.738;2023-01-19T09:10:48;3.20;76.80
74294;DHT22;64044;59.904;10.738;2023-01-19T09:13:14;3.20;76.80
74294;DHT22;64044;59.904;10.738;2023-01-19T09:15:41;3.20;76.80
74294;DHT22;64044;59.904;10.738;2023-01-19T09:18:13;3.20;76.90
74294;DHT22;64044;59.904;10.738;2023-01-19T09:20:40;3.20;77.00
74294;DHT22;64044;59.904;10.738;2023-01-19T09:23:08;3.20;77.00
74294;DHT22;64044;59.904;10.738;2023-01-19T09:25:36;3.10;77.00
74294;DHT22;64044;59.904;10.738;2023-01-19T09:28:03;3.20;77.10
74294;DHT22;64044;59.904;10.738;2023-01-19T09:30:29;3.20;77.20
74294;DHT22;64044;59.904;10.738;2023-01-19T09:33:03;3.10;77.20
74294;DHT22;64044;59.904;10.738;2023-01-19T09:35:31;3.20;77.10
74294;DHT22;64044;59.904;10.738;2023-01-19T09:37:57;3.20;77.10
74294;DHT22;64044;59.904;10.738;2023-01-19T09:40:23;3.20;77.00
74294;DHT22;64044;59.904;10.738;2023-01-19T09:43:12;3.20;77.00
74294;DHT22;64044;59.904;10.738;2023-01-19T09:45:49;3.20;76.70
74294;DHT22;64044;59.904;10.738;2023-01-19T09:48:37;3.30;77.50
74294;DHT22;64044;59.904;10.738;2023-01-19T09:51:05;3.20;76.50
74294;DHT22;64044;59.904;10.738;2023-01-19T09:56:19;3.20;76.50
74294;DHT22;64044;59.904;10.738;2023-01-19T09:58:46;3.20;76.30
74294;DHT22;64044;59.904;10.738;2023-01-19T10:06:45;3.30;76.10
74294;DHT22;64044;59.904;10.738;2023-01-19T10:15:08;3.20;75.70
74294;DHT22;64044;59.904;10.738;2023-01-19T10:17:54;3.20;75.60
74294;DHT22;64044;59.904;10.738;2023-01-19T10:20:44;3.20;75.50
74294;DHT22;64044;59.904;10.738;2023-01-19T10:23:39;3.20;75.30
74294;DHT22;64044;59.904;10.738;2023-01-19T10:26:14;3.20;75.20
74294;DHT22;64044;59.904;10.738;2023-01-19T10:28:41;3.20;75.50
74294;DHT22;64044;59.904;10.738;2023-01-19T10:31:08;3.20;75.60
74294;DHT22;64044;59.904;10.738;2023-01-19T10:33:35;3.20;75.50
74294;DHT22;64044;59.904;10.738;2023-01-19T10:38:52;3.20;74.70
74294;DHT22;64044;59.904;10.738;2023-01-19T10:41:46;3.20;75.20
74294;DHT22;64044;59.904;10.738;2023-01-19T10:44:25;3.20;75.00
74294;DHT22;64044;59.904;10.738;2023-01-19T10:46:54;3.20;74.80
74294;DHT22;64044;59.904;10.738;2023-01-19T10:49:29;3.10;74.80
74294;DHT22;64044;59.904;10.738;2023-01-19T10:52:00;3.10;74.70
74294;DHT22;64044;59.904;10.738;2023-01-19T10:54:28;3.10;74.70
74294;DHT22;64044;59.904;10.738;2023-01-19T10:57:03;3.10;74.80
74294;DHT22;64044;59.904;10.738;2023-01-19T10:59:52;3.10;75.40
74294;DHT22;64044;59.904;10.738;2023-01-19T11:02:30;3.10;74.70
74294;DHT22;64044;59.904;10.738;2023-01-19T11:05:21;3.10;74.20
74294;DHT22;64044;59.904;10.738;2023-01-19T11:07:46;3.10;74.40
74294;DHT22;64044;59.904;10.738;2023-01-19T11:12:47;3.10;74.70
74294;DHT22;64044;59.904;10.738;2023-01-19T11:15:32;3.10;74.60
74294;DHT22;64044;59.904;10.738;2023-01-19T11:18:00;3.10;74.70
74294;DHT22;64044;59.904;10.738;2023-01-19T11:20:28;3.10;74.70
74294;DHT22;64044;59.904;10.738;2023-01-19T11:25:39;3.20;74.30
74294;DHT22;64044;59.904;10.738;2023-01-19T11:28:26;3.30;74.70
74294;DHT22;64044;59.904;10.738;2023-01-19T11:31:01;3.30;74.20
74294;DHT22;64044;59.904;10.738;2023-01-19T11:36:35;3.30;73.80
74294;DHT22;64044;59.904;10.738;2023-01-19T11:39:20;3.40;73.80
74294;DHT22;64044;59.904;10.738;2023-01-19T11:42:03;3.40;74.50
74294;DHT22;64044;59.904;10.738;2023-01-19T11:44:35;3.50;73.80
74294;DHT22;64044;59.904;10.738;2023-01-19T11:47:12;3.50;73.90
74294;DHT22;64044;59.904;10.738;2023-01-19T11:52:39;3.50;73.70
74294;DHT22;64044;59.904;10.738;2023-01-19T11:58:17;3.50;73.30
74294;DHT22;64044;59.904;10.738;2023-01-19T12:03:40;3.50;74.40
74294;DHT22;64044;59.904;10.738;2023-01-19T12:06:11;3.50;73.40
74294;DHT22;64044;59.904;10.738;2023-01-19T12:08:46;3.50;73.70
74294;DHT22;64044;59.904;10.738;2023-01-19T12:11:18;3.60;73.60
74294;DHT22;64044;59.904;10.738;2023-01-19T12:13:46;3.60;73.60
74294;DHT22;64044;59.904;10.738;2023-01-19T12:16:18;3.60;73.60
74294;DHT22;64044;59.904;10.738;2023-01-19T12:18:48;3.60;73.40
74294;DHT22;64044;59.904;10.738;2023-01-19T12:21:16;3.60;73.40
74294;DHT22;64044;59.904;10.738;2023-01-19T12:24:29;3.60;73.20
74294;DHT22;64044;59.904;10.738;2023-01-19T12:26:37;3.60;73.30
74294;DHT22;64044;59.904;10.738;2023-01-19T12:29:11;3.70;73.10
74294;DHT22;64044;59.904;10.738;2023-01-19T12:31:38;3.60;73.10
74294;DHT22;64044;59.904;10.738;2023-01-19T12:37:01;3.70;72.70
74294;DHT22;64044;59.904;10.738;2023-01-19T12:39:28;3.70;72.90
74294;DHT22;64044;59.904;10.738;2023-01-19T12:42:14;3.70;72.90
74294;DHT22;64044;59.904;10.738;2023-01-19T12:44:43;3.70;72.30
74294;DHT22;64044;59.904;10.738;2023-01-19T12:52:19;3.70;72.60
74294;DHT22;64044;59.904;10.738;2023-01-19T12:54:52;3.60;72.40
74294;DHT22;64044;59.904;10.738;2023-01-19T12:57:26;3.60;72.40
74294;DHT22;64044;59.904;10.738;2023-01-19T13:00:43;3.60;72.30
74294;DHT22;64044;59.904;10.738;2023-01-19T13:02:54;3.50;72.20
74294;DHT22;64044;59.904;10.738;2023-01-19T13:21:36;3.40;72.30
74294;DHT22;64044;59.904;10.738;2023-01-19T13:24:07;3.30;72.50
74294;DHT22;64044;59.904;10.738;2023-01-19T13:26:34;3.30;72.70
74294;DHT22;64044;59.904;10.738;2023-01-19T13:29:27;3.30;72.50
74294;DHT22;64044;59.904;10.738;2023-01-19T13:31:56;3.20;72.20
74294;DHT22;64044;59.904;10.738;2023-01-19T13:37:19;3.20;72.50
74294;DHT22;64044;59.904;10.738;2023-01-19T13:39:47;3.20;72.60
74294;DHT22;64044;59.904;10.738;2023-01-19T13:42:24;3.20;72.50
74294;DHT22;64044;59.904;10.738;2023-01-19T13:44:52;3.20;72.40
74294;DHT22;64044;59.904;10.738;2023-01-19T13:47:22;3.20;72.60
74294;DHT22;64044;59.904;10.738;2023-01-19T13:49:53;3.20;72.50
74294;DHT22;64044;59.904;10.738;2023-01-19T13:52:24;3.20;72.40
74294;DHT22;64044;59.904;10.738;2023-01-19T13:54:58;3.10;72.40
74294;DHT22;64044;59.904;10.738;2023-01-19T14:00:19;3.10;72.30
74294;DHT22;64044;59.904;10.738;2023-01-19T14:05:33;3.10;72.40
74294;DHT22;64044;59.904;10.738;2023-01-19T14:10:39;3.10;72.40
74294;DHT22;64044;59.904;10.738;2023-01-19T14:13:22;3.10;72.40
74294;DHT22;64044;59.904;10.738;2023-01-19T14:15:51;3.10;72.40
74294;DHT22;64044;59.904;10.738;2023-01-19T14:20:59;3.10;72.50
74294;DHT22;64044;59.904;10.738;2023-01-19T14:23:41;3.00;72.20
74294;DHT22;64044;59.904;10.738;2023-01-19T14:29:30;3.00;72.30
74294;DHT22;64044;59.904;10.738;2023-01-19T14:42:32;3.00;72.50
74294;DHT22;64044;59.904;10.738;2023-01-19T14:45:00;3.00;72.60
74294;DHT22;64044;59.904;10.738;2023-01-19T14:47:41;3.00;72.70
74294;DHT22;64044;59.904;10.738;2023-01-19T14:50:34;2.90;72.60
74294;DHT22;64044;59.904;10.738;2023-01-19T14:53:15;2.90;72.70
74294;DHT22;64044;59.904;10.738;2023-01-19T14:58:17;2.90;73.00
74294;DHT22;64044;59.904;10.738;2023-01-19T15:00:45;2.90;73.10
74294;DHT22;64044;59.904;10.738;2023-01-19T15:03:11;2.90;73.20
74294;DHT22;64044;59.904;10.738;2023-01-19T15:05:45;2.90;73.30
74294;DHT22;64044;59.904;10.738;2023-01-19T15:08:16;2.80;73.40
74294;DHT22;64044;59.904;10.738;2023-01-19T15:10:43;2.90;73.50
74294;DHT22;64044;59.904;10.738;2023-01-19T15:13:16;2.80;73.40
74294;DHT22;64044;59.904;10.738;2023-01-19T15:15:43;2.80;73.60
74294;DHT22;64044;59.904;10.738;2023-01-19T15:18:14;2.80;73.70
74294;DHT22;64044;59.904;10.738;2023-01-19T15:20:41;2.80;73.80
74294;DHT22;64044;59.904;10.738;2023-01-19T15:23:09;2.70;73.80
74294;DHT22;64044;59.904;10.738;2023-01-19T15:25:35;2.70;73.90
74294;DHT22;64044;59.904;10.738;2023-01-19T15:28:09;2.70;73.90
74294;DHT22;64044;59.904;10.738;2023-01-19T15:30:36;2.70;74.00
74294;DHT22;64044;59.904;10.738;2023-01-19T15:33:02;2.70;74.10
74294;DHT22;64044;59.904;10.738;2023-01-19T15:35:28;2.70;74.30
74294;DHT22;64044;59.904;10.738;2023-01-19T15:37:54;2.70;74.40
74294;DHT22;64044;59.904;10.738;2023-01-19T15:40:20;2.60;74.50
74294;DHT22;64044;59.904;10.738;2023-01-19T15:42:47;2.60;74.50
74294;DHT22;64044;59.904;10.738;2023-01-19T15:47:42;2.60;74.50
74294;DHT22;64044;59.904;10.738;2023-01-19T15:50:08;2.60;74.60
74294;DHT22;64044;59.904;10.738;2023-01-19T15:52:34;2.60;74.60
74294;DHT22;64044;59.904;10.738;2023-01-19T15:55:00;2.60;74.70
74294;DHT22;64044;59.904;10.738;2023-01-19T15:57:25;2.60;74.70
74294;DHT22;64044;59.904;10.738;2023-01-19T15:59:51;2.60;74.70
74294;DHT22;64044;59.904;10.738;2023-01-19T16:02:17;2.60;74.80
74294;DHT22;64044;59.904;10.738;2023-01-19T16:04:47;2.60;74.80
74294;DHT22;64044;59.904;10.738;2023-01-19T16:07:13;2.60;74.80
74294;DHT22;64044;59.904;10.738;2023-01-19T16:09:38;2.60;74.80
74294;DHT22;64044;59.904;10.738;2023-01-19T16:12:04;2.60;74.80
74294;DHT22;64044;59.904;10.738;2023-01-19T16:14:30;2.60;74.90
74294;DHT22;64044;59.904;10.738;2023-01-19T16:16:56;2.60;74.90
74294;DHT22;64044;59.904;10.738;2023-01-19T16:19:24;2.60;75.00
74294;DHT22;64044;59.904;10.738;2023-01-19T16:21:50;2.60;75.00
74294;DHT22;64044;59.904;10.738;2023-01-19T16:24:15;2.60;75.10
74294;DHT22;64044;59.904;10.738;2023-01-19T16:26:42;2.60;75.10
74294;DHT22;64044;59.904;10.738;2023-01-19T16:29:08;2.60;75.10
74294;DHT22;64044;59.904;10.738;2023-01-19T16:31:40;2.60;75.10
74294;DHT22;64044;59.904;10.738;2023-01-19T16:34:07;2.60;75.20
74294;DHT22;64044;59.904;10.738;2023-01-19T16:36:34;2.60;75.30
74294;DHT22;64044;59.904;10.738;2023-01-19T16:39:03;2.60;75.40
74294;DHT22;64044;59.904;10.738;2023-01-19T16:41:29;2.60;75.40
74294;DHT22;64044;59.904;10.738;2023-01-19T16:43:57;2.60;75.40
74294;DHT22;64044;59.904;10.738;2023-01-19T16:46:31;2.60;75.40
74294;DHT22;64044;59.904;10.738;2023-01-19T16:49:25;2.60;75.50
74294;DHT22;64044;59.904;10.738;2023-01-19T16:51:52;2.60;75.80
74294;DHT22;64044;59.904;10.738;2023-01-19T16:54:22;2.50;75.40
74294;DHT22;64044;59.904;10.738;2023-01-19T16:56:51;2.50;75.40
74294;DHT22;64044;59.904;10.738;2023-01-19T16:59:17;2.50;75.50
74294;DHT22;64044;59.904;10.738;2023-01-19T17:01:44;2.50;75.50
74294;DHT22;64044;59.904;10.738;2023-01-19T17:04:10;2.50;75.50
74294;DHT22;64044;59.904;10.738;2023-01-19T17:06:37;2.40;75.70
74294;DHT22;64044;59.904;10.738;2023-01-19T17:09:03;2.40;75.70
74294;DHT22;64044;59.904;10.738;2023-01-19T17:11:31;2.40;75.80
74294;DHT22;64044;59.904;10.738;2023-01-19T17:14:02;2.40;75.80
74294;DHT22;64044;59.904;10.738;2023-01-19T17:16:29;2.40;75.90
74294;DHT22;64044;59.904;10.738;2023-01-19T17:18:57;2.40;76.00
74294;DHT22;64044;59.904;10.738;2023-01-19T17:21:23;2.30;75.90
74294;DHT22;64044;59.904;10.738;2023-01-19T17:23:50;2.30;76.00
74294;DHT22;64044;59.904;10.738;2023-01-19T17:26:19;2.40;76.20
74294;DHT22;64044;59.904;10.738;2023-01-19T17:28:45;2.30;76.10
74294;DHT22;64044;59.904;10.738;2023-01-19T17:31:14;2.30;76.20
74294;DHT22;64044;59.904;10.738;2023-01-19T17:33:43;2.30;76.30
74294;DHT22;64044;59.904;10.738;2023-01-19T17:36:11;2.30;76.50
74294;DHT22;64044;59.904;10.738;2023-01-19T17:38:38;2.30;76.40
74294;DHT22;64044;59.904;10.738;2023-01-19T17:41:26;2.30;76.50
74294;DHT22;64044;59.904;10.738;2023-01-19T17:43:52;2.30;76.80